Time;durP1;ratioP1;P1;durP2;ratioP2;P2;SDS_P1;SDS_P2;PMS_P1;PMS_P2;Temp;Humidity;BMP_temperature;BMP_pressure;BME280_temperature;BME280_humidity;BME280_pressure;Samples;Min_cycle;Max_cycle;Signal;HPM_P1;HPM_P2
2021/04/06 00:01:35;;;;;;;3.17;2.90;;;;;;;-4.08;97.29;97611.09;5060156;28;20214;-68
2021/04/06 00:04:05;;;;;;;3.80;3.30;;;;;;;-4.05;98.11;97604.94;5057816;28;20227;-67
2021/04/06 00:06:33;;;;;;;2.80;2.70;;;;;;;-3.84;97.76;97599.50;5058014;28;20207;-68
2021/04/06 00:09:01;;;;;;;4.07;2.87;;;;;;;-3.79;96.25;97600.94;5060259;28;20215;-68
2021/04/06 00:11:28;;;;;;;5.67;3.00;;;;;;;-3.73;95.83;97596.34;5058036;28;20207;-68
2021/04/06 00:13:56;;;;;;;3.27;2.97;;;;;;;-3.72;96.79;97590.25;5060931;28;20231;-67
2021/04/06 00:16:24;;;;;;;3.13;2.83;;;;;;;-3.60;96.42;97586.97;5064183;28;20663;-67
2021/04/06 00:18:51;;;;;;;4.17;3.20;;;;;;;-3.53;95.11;97588.31;5063880;28;20219;-67
2021/04/06 00:21:19;;;;;;;4.70;3.00;;;;;;;-3.65;95.01;97587.22;5064370;28;20202;-68
2021/04/06 00:23:46;;;;;;;3.20;2.97;;;;;;;-3.74;95.72;97579.13;5063782;28;20227;-67
2021/04/06 00:26:14;;;;;;;3.50;3.20;;;;;;;-3.73;94.24;97571.28;5064779;28;20285;-68
2021/04/06 00:28:42;;;;;;;3.53;2.93;;;;;;;-3.75;94.75;97578.31;5063426;28;20234;-67
2021/04/06 00:31:10;;;;;;;3.20;3.00;;;;;;;-3.66;94.24;97577.78;5064022;28;20203;-69
2021/04/06 00:33:40;;;;;;;3.10;2.90;;;;;;;-3.57;93.30;97573.00;5063594;28;20514;-67
2021/04/06 00:36:07;;;;;;;3.83;3.33;;;;;;;-3.58;93.96;97577.38;5062894;28;21197;-68
2021/04/06 00:38:38;;;;;;;4.10;3.33;;;;;;;-3.54;93.98;97568.50;5064243;28;20219;-67
2021/04/06 00:41:07;;;;;;;4.03;2.93;;;;;;;-3.50;92.05;97564.81;5063495;28;20199;-68
2021/04/06 00:43:35;;;;;;;2.90;2.70;;;;;;;-3.62;93.54;97578.44;5063978;28;20219;-69
2021/04/06 00:46:05;;;;;;;3.10;3.00;;;;;;;-3.65;93.91;97578.63;5062913;28;20608;-66
2021/04/06 00:48:33;;;;;;;3.13;2.93;;;;;;;-3.70;94.65;97583.22;5061534;28;20250;-69
2021/04/06 00:51:08;;;;;;;2.73;2.63;;;;;;;-3.70;94.07;97580.63;5061926;28;20749;-66
2021/04/06 00:53:54;;;;;;;3.10;2.90;;;;;;;-3.75;94.55;97575.72;5060566;28;20222;-69
2021/04/06 00:56:26;;;;;;;3.03;2.83;;;;;;;-3.79;95.47;97582.81;5062895;28;20230;-67
2021/04/06 00:58:54;;;;;;;3.53;3.23;;;;;;;-3.79;95.30;97575.03;5063841;28;20215;-67
2021/04/06 01:01:27;;;;;;;4.27;3.00;;;;;;;-3.74;95.11;97576.53;5062911;28;20211;-67
2021/04/06 01:03:57;;;;;;;3.80;2.83;;;;;;;-3.61;94.68;97579.28;5065365;28;20254;-66
2021/04/06 01:06:25;;;;;;;3.73;3.13;;;;;;;-3.58;93.62;97581.72;5060940;28;20199;-67
2021/04/06 01:08:53;;;;;;;3.73;3.17;;;;;;;-3.68;94.03;97582.22;5062288;28;20230;-69
2021/04/06 01:11:22;;;;;;;5.47;3.70;;;;;;;-3.65;94.65;97579.47;5062312;28;20663;-69
2021/04/06 01:13:49;;;;;;;3.50;3.20;;;;;;;-3.60;94.76;97571.41;5060288;28;20249;-67
2021/04/06 01:16:17;;;;;;;3.43;3.13;;;;;;;-3.50;93.79;97567.41;5063200;28;20218;-68
2021/04/06 01:18:44;;;;;;;4.77;3.10;;;;;;;-3.46;93.61;97567.22;5062865;28;20203;-69
2021/04/06 01:21:12;;;;;;;5.07;3.50;;;;;;;-3.49;92.76;97561.31;5063401;28;20203;-67
2021/04/06 01:23:40;;;;;;;5.00;2.70;;;;;;;-3.43;93.14;97556.69;5062809;28;20245;-67
2021/04/06 01:26:11;;;;;;;3.20;3.00;;;;;;;-3.40;93.95;97557.38;5061326;28;20481;-68
2021/04/06 01:28:39;;;;;;;3.40;3.20;;;;;;;-3.40;92.67;97557.38;5062844;28;20211;-64
2021/04/06 01:31:08;;;;;;;3.37;3.17;;;;;;;-3.47;92.05;97557.78;5060915;28;20219;-67
2021/04/06 01:33:35;;;;;;;3.57;2.77;;;;;;;-3.44;92.91;97553.25;5062339;28;20223;-68
2021/04/06 01:36:05;;;;;;;4.00;3.80;;;;;;;-3.50;93.13;97546.69;5059456;28;20231;-67
2021/04/06 01:38:34;;;;;;;3.80;3.53;;;;;;;-3.59;93.37;97547.22;5062188;28;20504;-67
2021/04/06 01:41:03;;;;;;;8.63;3.20;;;;;;;-3.65;93.88;97552.72;5062803;28;20426;-67
2021/04/06 01:43:30;;;;;;;3.57;3.27;;;;;;;-3.64;93.60;97560.41;5061774;28;20828;-67
2021/04/06 01:45:58;;;;;;;3.23;3.03;;;;;;;-3.68;93.12;97560.66;5060564;28;20210;-67
2021/04/06 01:48:28;;;;;;;2.77;2.57;;;;;;;-3.65;92.68;97545.78;5062132;28;20211;-67
2021/04/06 01:50:56;;;;;;;3.17;2.97;;;;;;;-3.72;94.17;97541.03;5062528;28;20214;-66
2021/04/06 01:53:24;;;;;;;3.33;3.03;;;;;;;-3.88;95.23;97538.44;5061906;28;20226;-67
2021/04/06 01:55:56;;;;;;;4.90;3.00;;;;;;;-3.87;95.21;97535.78;5062873;28;20218;-68
2021/04/06 01:58:27;;;;;;;5.07;3.20;;;;;;;-3.87;95.63;97534.94;5061471;28;20622;-65
2021/04/06 02:01:12;;;;;;;3.17;2.87;;;;;;;-3.90;95.92;97533.38;5059731;28;20220;-67
2021/04/06 02:03:42;;;;;;;3.33;3.13;;;;;;;-3.96;95.40;97537.13;5058546;28;20235;-67
2021/04/06 02:06:10;;;;;;;6.03;3.30;;;;;;;-3.92;96.14;97527.44;5061656;28;20211;-67
2021/04/06 02:08:38;;;;;;;3.10;2.90;;;;;;;-3.98;96.75;97520.84;5062054;28;20258;-67
2021/04/06 02:11:05;;;;;;;3.83;3.00;;;;;;;-3.88;94.94;97516.00;5062344;28;20203;-67
2021/04/06 02:13:33;;;;;;;4.83;3.27;;;;;;;-3.83;94.56;97516.56;5062919;28;20237;-67
2021/04/06 02:16:03;;;;;;;4.13;3.60;;;;;;;-3.92;95.44;97509.31;5060715;28;20618;-68
2021/04/06 02:18:31;;;;;;;4.77;3.30;;;;;;;-3.89;95.15;97521.25;5062443;28;20801;-68
2021/04/06 02:21:00;;;;;;;3.67;3.37;;;;;;;-3.95;94.41;97517.28;5061909;28;20441;-67
2021/04/06 02:23:37;;;;;;;3.20;2.97;;;;;;;-3.95;94.50;97527.63;5062322;28;20245;-68
2021/04/06 02:26:05;;;;;;;3.00;2.67;;;;;;;-3.98;94.60;97520.84;5060051;28;20544;-67
2021/04/06 02:28:32;;;;;;;3.10;2.80;;;;;;;-4.03;94.69;97515.09;5058045;28;20214;-64
2021/04/06 02:31:01;;;;;;;2.90;2.67;;;;;;;-3.98;95.09;97514.81;5061344;28;20217;-67
2021/04/06 02:33:29;;;;;;;3.00;2.80;;;;;;;-4.00;94.64;97511.47;5062179;28;20230;-65
2021/04/06 02:36:00;;;;;;;2.53;2.33;;;;;;;-4.01;95.35;97505.50;5060839;28;20210;-67
2021/04/06 02:38:28;;;;;;;5.07;2.90;;;;;;;-4.00;95.06;97507.16;5060031;28;20317;-65
2021/04/06 02:41:14;;;;;;;2.87;2.50;;;;;;;-3.96;94.94;97513.00;5060168;28;20228;-67
2021/04/06 02:43:42;;;;;;;4.57;2.60;;;;;;;-4.08;95.41;97504.97;5062405;28;20801;-69
2021/04/06 02:46:10;;;;;;;2.53;2.33;;;;;;;-4.01;95.19;97504.63;5059958;28;20207;-68
2021/04/06 02:48:49;;;;;;;3.83;2.73;;;;;;;-3.91;94.06;97498.06;5062873;28;20359;-70
2021/04/06 02:51:16;;;;;;;2.23;2.13;;;;;;;-3.92;94.11;97491.22;5070846;28;20683;-69
2021/04/06 02:53:44;;;;;;;2.53;2.33;;;;;;;-3.84;93.40;97485.56;5072061;28;20238;-67
2021/04/06 02:56:11;;;;;;;4.77;2.90;;;;;;;-3.80;94.38;97489.66;5064647;28;20686;-67
2021/04/06 02:58:39;;;;;;;3.60;2.90;;;;;;;-3.69;93.31;97489.06;5060444;28;20203;-67
2021/04/06 03:01:13;;;;;;;4.07;2.40;;;;;;;-3.69;93.17;97489.06;5063135;28;20213;-66
2021/04/06 03:03:41;;;;;;;3.43;2.13;;;;;;;-3.55;91.32;97488.28;5059979;28;20332;-65
2021/04/06 03:06:10;;;;;;;3.47;2.70;;;;;;;-3.63;92.92;97483.53;5059196;28;20199;-68
2021/04/06 03:08:39;;;;;;;2.57;2.20;;;;;;;-3.62;91.48;97474.84;5058719;28;20210;-66
2021/04/06 03:11:08;;;;;;;2.53;2.33;;;;;;;-3.46;91.20;97484.31;5061142;28;20206;-66
2021/04/06 03:13:39;;;;;;;2.93;2.67;;;;;;;-3.50;91.50;97475.88;5060220;28;20690;-67
2021/04/06 03:16:08;;;;;;;2.37;2.23;;;;;;;-3.47;90.86;97477.47;5061664;28;20207;-66
2021/04/06 03:18:37;;;;;;;4.17;2.93;;;;;;;-3.44;90.97;97472.13;5062122;28;20269;-65
2021/04/06 03:21:06;;;;;;;4.73;2.37;;;;;;;-3.40;89.09;97473.59;5057774;28;20210;-64
2021/04/06 03:23:34;;;;;;;3.30;2.80;;;;;;;-3.53;89.97;97479.50;5058111;28;20362;-67
2021/04/06 03:26:04;;;;;;;6.47;2.73;;;;;;;-3.54;90.83;97470.06;5059405;28;20840;-64
2021/04/06 03:28:35;;;;;;;2.20;2.10;;;;;;;-3.50;90.64;97458.59;5057013;28;20213;-65
2021/04/06 03:31:08;;;;;;;2.67;2.47;;;;;;;-3.47;89.18;97459.34;5073078;28;20241;-68
2021/04/06 03:33:37;;;;;;;2.50;2.30;;;;;;;-3.45;89.28;97462.69;5076541;28;20229;-65
2021/04/06 03:36:06;;;;;;;3.10;2.80;;;;;;;-3.50;89.76;97481.91;5075198;28;20528;-69
2021/04/06 03:38:33;;;;;;;2.27;2.10;;;;;;;-3.38;88.38;97471.75;5072772;28;20210;-65
2021/04/06 03:41:01;;;;;;;1.90;1.80;;;;;;;-3.32;88.86;97466.22;5079866;28;20782;-68
2021/04/06 03:43:38;;;;;;;5.60;2.67;;;;;;;-3.35;89.16;97469.84;5076065;28;20611;-66
2021/04/06 03:46:06;;;;;;;3.10;2.23;;;;;;;-3.36;89.69;97459.53;5074542;28;20519;-67
2021/04/06 03:48:35;;;;;;;5.43;2.10;;;;;;;-3.39;87.94;97452.81;5078726;28;20229;-66
2021/04/06 03:51:04;;;;;;;4.83;2.40;;;;;;;-3.40;88.51;97458.91;5077666;28;20199;-67
2021/04/06 03:53:38;;;;;;;4.17;2.50;;;;;;;-3.30;87.90;97456.59;5079182;28;20250;-66
2021/04/06 03:56:08;;;;;;;3.13;2.30;;;;;;;-3.29;88.07;97455.66;5073337;28;20591;-66
2021/04/06 03:58:39;;;;;;;3.10;2.20;;;;;;;-3.28;87.44;97441.78;5082474;28;20740;-67
2021/04/06 04:01:06;;;;;;;7.93;2.37;;;;;;;-3.27;87.49;97446.03;5084194;28;21404;-67
2021/04/06 04:03:34;;;;;;;4.97;2.43;;;;;;;-3.18;86.48;97446.44;5081839;28;20233;-66
2021/04/06 04:06:03;;;;;;;2.30;2.10;;;;;;;-3.23;85.76;97450.09;5077892;28;20225;-67
2021/04/06 04:08:30;;;;;;;5.27;2.47;;;;;;;-3.21;86.22;97445.69;5082242;28;20199;-66
2021/04/06 04:10:57;;;;;;;2.63;2.43;;;;;;;-3.08;85.56;97450.97;5080882;28;20233;-66
2021/04/06 04:13:24;;;;;;;3.73;2.70;;;;;;;-3.09;85.30;97451.88;5081815;28;20222;-66
2021/04/06 04:15:51;;;;;;;2.37;2.27;;;;;;;-3.08;85.88;97439.78;5083338;28;20202;-68
2021/04/06 04:18:19;;;;;;;3.23;2.13;;;;;;;-3.10;86.14;97431.25;5081168;28;20213;-65
2021/04/06 04:20:47;;;;;;;8.87;2.30;;;;;;;-2.99;85.54;97435.81;5084007;28;20206;-66
2021/04/06 04:23:14;;;;;;;3.57;2.47;;;;;;;-3.02;85.27;97417.84;5082580;28;20230;-67
2021/04/06 04:25:41;;;;;;;2.03;1.90;;;;;;;-2.96;85.57;97422.66;5082639;28;20662;-67
2021/04/06 04:28:08;;;;;;;3.23;2.70;;;;;;;-2.98;85.01;97420.13;5082813;28;20203;-67
2021/04/06 04:30:41;;;;;;;2.70;2.07;;;;;;;-2.98;85.81;97422.72;5081518;28;20230;-69
2021/04/06 04:33:10;;;;;;;2.10;1.90;;;;;;;-2.98;85.88;97427.91;5083455;28;20330;-68
2021/04/06 04:35:37;;;;;;;3.47;1.93;;;;;;;-2.91;84.38;97424.00;5074370;28;20217;-68
2021/04/06 04:38:06;;;;;;;2.70;2.27;;;;;;;-2.89;85.42;97426.53;5081499;28;20329;-69
2021/04/06 04:40:33;;;;;;;4.63;2.30;;;;;;;-2.89;86.32;97416.16;5080946;28;20206;-68
2021/04/06 04:43:01;;;;;;;5.83;2.47;;;;;;;-2.89;86.27;97421.34;5080431;28;20271;-67
2021/04/06 04:45:29;;;;;;;2.50;2.17;;;;;;;-2.91;86.38;97421.41;5084278;28;20210;-69
2021/04/06 04:47:56;;;;;;;3.93;2.57;;;;;;;-2.83;84.88;97422.75;5078874;28;20309;-67
2021/04/06 04:50:23;;;;;;;4.30;2.37;;;;;;;-2.88;86.51;97401.41;5081753;28;20310;-68
2021/04/06 04:52:51;;;;;;;3.07;2.77;;;;;;;-2.83;85.03;97405.41;5083549;28;20225;-68
2021/04/06 04:55:20;;;;;;;4.30;2.53;;;;;;;-2.84;85.29;97403.72;5078472;28;20202;-67
2021/04/06 04:57:47;;;;;;;2.47;2.10;;;;;;;-2.78;84.19;97411.13;5080679;28;20213;-67
2021/04/06 05:00:15;;;;;;;2.43;2.10;;;;;;;-2.77;84.30;97414.56;5081448;28;20205;-67
2021/04/06 05:02:43;;;;;;;2.67;2.20;;;;;;;-2.72;84.32;97404.75;5079276;28;20206;-66
2021/04/06 05:05:12;;;;;;;3.03;2.30;;;;;;;-2.74;83.33;97409.19;5078459;28;20194;-66
2021/04/06 05:07:40;;;;;;;4.37;2.20;;;;;;;-2.75;84.37;97402.34;5080689;28;20234;-68
2021/04/06 05:10:08;;;;;;;3.10;2.67;;;;;;;-2.77;84.27;97404.19;5080861;28;20245;-67
2021/04/06 05:12:36;;;;;;;3.97;2.17;;;;;;;-2.73;84.23;97402.22;5078942;28;20234;-66
2021/04/06 05:15:05;;;;;;;4.50;2.07;;;;;;;-2.70;84.21;97409.81;5079170;28;20203;-68
2021/04/06 05:17:32;;;;;;;4.87;2.70;;;;;;;-2.71;84.79;97408.16;5080889;28;20202;-68
2021/04/06 05:20:00;;;;;;;5.10;2.60;;;;;;;-2.68;84.30;97415.75;5081471;28;20275;-67
2021/04/06 05:22:27;;;;;;;3.27;2.97;;;;;;;-2.63;84.90;97417.13;5079922;28;20214;-68
2021/04/06 05:24:53;;;;;;;4.10;3.00;;;;;;;-2.69;84.39;97411.47;5082090;28;20272;-67
2021/04/06 05:27:20;;;;;;;5.33;2.87;;;;;;;-2.65;84.48;97402.63;5077554;28;20214;-68
2021/04/06 05:29:48;;;;;;;6.90;5.50;;;;;;;-2.64;85.48;97410.28;5081284;28;20638;-66
2021/04/06 05:32:15;;;;;;;3.60;3.30;;;;;;;-2.60;86.06;97413.53;5082071;28;20308;-68
2021/04/06 05:34:42;;;;;;;11.50;10.30;;;;;;;-2.60;85.34;97413.53;5081788;28;20218;-69
2021/04/06 05:37:10;;;;;;;10.20;9.07;;;;;;;-2.57;85.71;97421.13;5081234;28;20693;-67
2021/04/06 05:39:37;;;;;;;19.27;10.43;;;;;;;-2.59;86.38;97411.75;5079320;28;20229;-69
2021/04/06 05:42:04;;;;;;;3.97;3.60;;;;;;;-2.56;86.41;97416.75;5080696;28;20206;-67
2021/04/06 05:44:31;;;;;;;4.83;3.30;;;;;;;-2.60;86.78;97412.69;5076310;28;20263;-66
2021/04/06 05:47:00;;;;;;;2.90;2.70;;;;;;;-2.60;86.60;97403.16;5077613;28;20601;-68
2021/04/06 05:49:30;;;;;;;4.33;2.90;;;;;;;-2.53;86.90;97416.56;5076931;28;20668;-67
2021/04/06 05:51:57;;;;;;;7.20;3.90;;;;;;;-2.52;86.18;97413.88;5080841;28;20206;-66
2021/04/06 05:54:26;;;;;;;6.73;6.00;;;;;;;-2.52;86.20;97415.63;5079041;28;20222;-67
2021/04/06 05:56:52;;;;;;;12.23;7.43;;;;;;;-2.45;86.20;97403.94;5080920;28;20206;-67
2021/04/06 05:59:19;;;;;;;4.10;2.87;;;;;;;-2.43;85.69;97416.81;5079088;28;20213;-66
2021/04/06 06:01:47;;;;;;;3.93;3.07;;;;;;;-2.35;85.17;97419.75;5080283;28;20641;-69
2021/04/06 06:04:16;;;;;;;2.90;2.30;;;;;;;-2.31;85.41;97420.41;5076149;28;20237;-67
2021/04/06 06:06:43;;;;;;;4.47;2.77;;;;;;;-2.30;84.22;97409.09;5078939;28;20733;-67
2021/04/06 06:09:12;;;;;;;2.13;2.03;;;;;;;-2.31;84.52;97413.44;5080459;28;20688;-67
2021/04/06 06:12:00;;;;;;;4.70;3.27;;;;;;;-2.21;85.10;97426.66;5076488;28;20202;-67
2021/04/06 06:14:29;;;;;;;6.17;3.97;;;;;;;-2.13;84.21;97429.59;5070146;28;20229;-70
2021/04/06 06:16:56;;;;;;;29.07;12.73;;;;;;;-2.05;84.61;97431.72;5077914;28;20213;-67
2021/04/06 06:19:32;;;;;;;12.23;7.27;;;;;;;-1.99;84.81;97438.28;5079287;28;20210;-67
2021/04/06 06:22:09;;;;;;;6.20;3.00;;;;;;;-1.98;85.50;97437.34;5075902;28;20198;-68
2021/04/06 06:24:38;;;;;;;5.80;3.20;;;;;;;-2.11;84.24;97434.72;5079597;28;20519;-69
2021/04/06 06:27:23;;;;;;;3.20;2.87;;;;;;;-2.12;84.11;97430.44;5079330;28;20693;-68
2021/04/06 06:29:51;;;;;;;11.40;6.80;;;;;;;-2.04;84.47;97443.75;5077795;28;20330;-68
2021/04/06 06:32:20;;;;;;;7.57;3.33;;;;;;;-2.04;83.59;97438.56;5080798;28;20576;-68
2021/04/06 06:34:48;;;;;;;7.00;4.83;;;;;;;-2.12;84.19;97441.66;5080715;28;20225;-66
2021/04/06 06:37:19;;;;;;;4.27;3.60;;;;;;;-2.07;84.93;97442.22;5077452;28;20213;-69
2021/04/06 06:39:57;;;;;;;5.47;4.73;;;;;;;-2.04;84.19;97436.81;5079446;28;20257;-68
2021/04/06 06:42:30;;;;;;;3.07;2.87;;;;;;;-1.85;84.76;97448.59;5077870;28;20210;-67
2021/04/06 06:44:57;;;;;;;6.97;4.33;;;;;;;-1.81;85.09;97446.66;5080900;28;20585;-69
2021/04/06 06:47:25;;;;;;;7.80;3.47;;;;;;;-1.78;84.47;97446.44;5079188;28;20249;-69
2021/04/06 06:49:55;;;;;;;7.40;3.43;;;;;;;-1.71;84.07;97446.88;5080216;28;20222;-70
2021/04/06 06:52:30;;;;;;;3.33;3.03;;;;;;;-1.71;84.07;97442.53;5078991;28;20198;-69
2021/04/06 06:55:00;;;;;;;8.60;5.33;;;;;;;-1.55;83.85;97450.13;5071717;28;20225;-69
2021/04/06 06:57:30;;;;;;;5.57;4.30;;;;;;;-1.43;84.19;97438.09;5072608;28;20211;-70
2021/04/06 07:00:06;;;;;;;8.77;3.80;;;;;;;-1.42;83.29;97442.38;5074659;28;20206;-69
2021/04/06 07:02:33;;;;;;;5.80;5.13;;;;;;;-1.52;82.61;97444.72;5074095;28;20216;-69
2021/04/06 07:05:16;;;;;;;6.33;3.77;;;;;;;-1.41;83.38;97451.81;5074114;28;20293;-69
2021/04/06 07:07:55;;;;;;;9.70;4.77;;;;;;;-1.32;84.03;97453.00;5073675;28;20261;-71
2021/04/06 07:10:24;;;;;;;6.60;3.13;;;;;;;-1.26;83.80;97439.56;5074995;28;20694;-71
2021/04/06 07:12:59;;;;;;;4.90;3.67;;;;;;;-1.21;84.19;97439.25;5073363;28;20363;-69
2021/04/06 07:15:27;;;;;;;4.13;3.67;;;;;;;-1.24;83.42;97444.66;5075569;28;20520;-69
2021/04/06 07:17:59;;;;;;;4.93;3.43;;;;;;;-1.26;84.94;97443.94;5078540;28;20206;-68
2021/04/06 07:20:27;;;;;;;11.90;8.90;;;;;;;-1.11;83.07;97455.91;5079078;28;20673;-68
2021/04/06 07:22:56;;;;;;;5.63;4.17;;;;;;;-0.97;81.84;97452.34;5079411;28;20231;-68
2021/04/06 07:25:23;;;;;;;5.53;3.73;;;;;;;-1.10;84.20;97448.94;5083454;28;20206;-70
2021/04/06 07:27:50;;;;;;;9.23;5.77;;;;;;;-0.92;83.71;97447.69;5081827;28;20452;-70
2021/04/06 07:30:18;;;;;;;5.37;4.60;;;;;;;-0.92;83.86;97458.09;5081808;28;20230;-69
2021/04/06 07:32:45;;;;;;;10.47;5.87;;;;;;;-0.91;84.29;97449.34;5083951;28;20202;-68
2021/04/06 07:35:13;;;;;;;15.10;10.13;;;;;;;-0.88;82.92;97456.94;5083406;28;20212;-68
2021/04/06 07:37:41;;;;;;;8.27;5.20;;;;;;;-1.10;83.29;97452.38;5083935;28;20229;-70
2021/04/06 07:40:10;;;;;;;8.63;7.37;;;;;;;-1.06;83.46;97464.22;5084514;28;20204;-69
2021/04/06 07:42:38;;;;;;;3.87;3.57;;;;;;;-1.04;83.43;97458.91;5079855;28;20206;-70
2021/04/06 07:45:08;;;;;;;4.53;4.10;;;;;;;-1.03;83.15;97452.78;5084243;28;20701;-70
2021/04/06 07:47:39;;;;;;;6.83;5.53;;;;;;;-1.06;82.82;97451.22;5080708;28;20202;-69
2021/04/06 07:50:12;;;;;;;4.00;3.70;;;;;;;-1.03;83.93;97450.16;5083235;28;20222;-69
2021/04/06 07:52:40;;;;;;;4.37;4.03;;;;;;;-0.81;82.79;97454.72;5081978;28;20207;-68
2021/04/06 07:55:08;;;;;;;20.10;11.60;;;;;;;-0.82;82.20;97463.47;5081658;28;20681;-66
2021/04/06 07:57:42;;;;;;;4.10;3.70;;;;;;;-0.98;81.97;97457.66;5082800;28;20206;-67
2021/04/06 08:00:11;;;;;;;8.23;5.67;;;;;;;-0.78;82.38;97448.50;5080992;28;20256;-67
2021/04/06 08:02:45;;;;;;;6.53;5.97;;;;;;;-0.76;81.19;97449.22;5080129;28;20586;-69
2021/04/06 08:05:24;;;;;;;5.30;3.70;;;;;;;-0.64;81.14;97439.72;5079045;28;20686;-69
2021/04/06 08:07:53;;;;;;;4.53;3.93;;;;;;;-0.78;81.77;97445.91;5082276;28;20214;-69
2021/04/06 08:10:46;;;;;;;11.37;6.60;;;;;;;-0.63;82.12;97446.59;5082160;28;20264;-71
2021/04/06 08:13:14;;;;;;;13.50;6.20;;;;;;;-0.77;81.87;97460.56;5081673;28;20232;-69
2021/04/06 08:15:40;;;;;;;18.90;9.13;;;;;;;-0.65;81.25;97451.09;5083979;28;20210;-71
2021/04/06 08:18:08;;;;;;;18.17;8.93;;;;;;;-0.50;81.47;97457.81;5083954;28;20554;-70
2021/04/06 08:20:38;;;;;;;11.93;6.60;;;;;;;-0.36;80.23;97443.81;5082018;28;20202;-70
2021/04/06 08:23:08;;;;;;;5.73;4.60;;;;;;;-0.47;80.39;97460.19;5083027;28;20222;-68
2021/04/06 08:25:55;;;;;;;5.90;5.13;;;;;;;-0.46;81.47;97445.44;5082672;28;20689;-68
2021/04/06 08:28:38;;;;;;;6.80;4.80;;;;;;;-0.27;80.28;97451.91;5081408;28;20206;-68
2021/04/06 08:31:24;;;;;;;25.57;12.40;;;;;;;-0.16;80.45;97459.81;5083561;28;20222;-70
2021/04/06 08:33:52;;;;;;;51.20;18.77;;;;;;;-0.12;79.66;97463.88;5082761;28;20236;-69
2021/04/06 08:36:23;;;;;;;15.07;8.37;;;;;;;-0.10;78.75;97464.59;5081224;28;20577;-68
2021/04/06 08:38:53;;;;;;;23.90;10.33;;;;;;;-0.09;79.65;97463.66;5084323;28;20721;-67
2021/04/06 08:41:37;;;;;;;28.90;11.80;;;;;;;0.09;80.13;97464.09;5082678;28;20691;-68
2021/04/06 08:44:09;;;;;;;5.33;4.73;;;;;;;0.01;80.37;97458.59;5080915;28;20218;-70
2021/04/06 08:46:49;;;;;;;8.77;6.30;;;;;;;-0.14;79.77;97470.97;5080772;28;20598;-67
2021/04/06 08:49:19;;;;;;;41.40;17.63;;;;;;;-0.08;81.12;97467.91;5083257;28;20202;-67
2021/04/06 08:51:47;;;;;;;12.27;6.53;;;;;;;-0.25;80.16;97460.44;5080425;28;20227;-69
2021/04/06 08:54:19;;;;;;;9.33;4.77;;;;;;;-0.27;80.96;97465.78;5081781;28;20229;-68
2021/04/06 08:56:48;;;;;;;16.93;8.87;;;;;;;-0.19;82.51;97473.03;5080946;28;20202;-70
2021/04/06 08:59:31;;;;;;;16.17;6.87;;;;;;;-0.31;82.55;97472.97;5079919;28;20202;-70
2021/04/06 09:02:00;;;;;;;8.60;5.37;;;;;;;-0.38;84.33;97481.31;5073541;28;20211;-71
2021/04/06 09:04:28;;;;;;;27.13;11.23;;;;;;;-0.37;83.61;97475.19;5079437;28;20248;-69
2021/04/06 09:06:56;;;;;;;17.57;8.07;;;;;;;-0.35;83.79;97475.91;5082122;28;20202;-70
2021/04/06 09:09:25;;;;;;;9.00;5.63;;;;;;;-0.25;81.48;97478.69;5082865;28;20233;-68
2021/04/06 09:11:53;;;;;;;6.40;4.83;;;;;;;-0.17;82.31;97468.56;5081047;28;20594;-70
2021/04/06 09:14:22;;;;;;;7.73;3.70;;;;;;;-0.12;82.09;97476.88;5082892;28;20542;-70
2021/04/06 09:16:51;;;;;;;9.23;6.33;;;;;;;-0.15;81.29;97469.28;5082121;28;20207;-71
2021/04/06 09:19:18;;;;;;;12.87;7.27;;;;;;;-0.12;80.88;97469.06;5081009;28;20244;-67
2021/04/06 09:21:47;;;;;;;40.37;15.30;;;;;;;0.04;79.75;97473.16;5078984;28;20210;-70
2021/04/06 09:24:15;;;;;;;6.20;4.87;;;;;;;0.13;81.66;97470.75;5081498;28;20659;-70
2021/04/06 09:26:45;;;;;;;6.20;4.20;;;;;;;0.25;80.08;97473.38;5079171;28;20206;-72
2021/04/06 09:29:13;;;;;;;13.67;7.03;;;;;;;0.40;78.31;97484.47;5075707;28;20952;-70
2021/04/06 09:31:43;;;;;;;9.97;5.20;;;;;;;0.41;77.94;97473.94;5077201;28;20226;-73
2021/04/06 09:34:12;;;;;;;5.03;4.40;;;;;;;0.51;77.67;97463.66;5078125;28;20233;-70
2021/04/06 09:36:41;;;;;;;10.27;6.13;;;;;;;0.49;77.15;97475.16;5081095;28;20218;-70
2021/04/06 09:39:10;;;;;;;4.73;3.70;;;;;;;0.42;76.97;97459.13;5080629;28;20213;-72
2021/04/06 09:41:40;;;;;;;5.50;3.97;;;;;;;0.57;75.40;97462.38;5080309;28;20209;-71
2021/04/06 09:44:11;;;;;;;4.63;4.20;;;;;;;0.78;75.75;97457.31;5076167;28;20611;-71
2021/04/06 09:46:41;;;;;;;11.23;5.40;;;;;;;0.69;74.83;97464.06;5077824;28;20639;-69
2021/04/06 09:49:09;;;;;;;4.63;4.20;;;;;;;0.67;75.10;97452.09;5077145;28;20540;-70
2021/04/06 09:51:56;;;;;;;4.80;4.33;;;;;;;0.79;74.26;97448.56;5077432;28;20226;-69
2021/04/06 09:54:26;;;;;;;4.30;3.90;;;;;;;1.07;74.30;97443.00;5073466;28;20230;-69
2021/04/06 09:56:53;;;;;;;6.37;3.53;;;;;;;0.78;73.39;97462.53;5077934;28;20210;-71
2021/04/06 09:59:22;;;;;;;5.87;3.97;;;;;;;0.88;73.29;97454.00;5076132;28;20670;-70
2021/04/06 10:01:50;;;;;;;5.17;3.90;;;;;;;1.20;72.97;97454.19;5079929;28;20296;-67
2021/04/06 10:04:32;;;;;;;4.17;3.23;;;;;;;1.59;72.42;97445.97;5081461;28;20536;-68
2021/04/06 10:07:07;;;;;;;4.90;3.67;;;;;;;1.69;70.74;97444.28;5082499;28;20200;-71
2021/04/06 10:09:36;;;;;;;4.07;3.50;;;;;;;1.42;70.60;97444.66;5079599;28;20666;-69
2021/04/06 10:12:03;;;;;;;4.83;4.33;;;;;;;1.14;71.45;97428.56;5072560;28;20257;-69
2021/04/06 10:14:31;;;;;;;4.33;3.80;;;;;;;1.14;70.86;97444.22;5077494;28;20241;-67
2021/04/06 10:17:00;;;;;;;4.90;3.00;;;;;;;1.33;69.00;97435.78;5079975;28;20209;-69
2021/04/06 10:19:28;;;;;;;5.23;3.77;;;;;;;1.54;69.91;97461.16;5080379;28;20216;-69
2021/04/06 10:22:07;;;;;;;4.67;4.23;;;;;;;1.62;68.64;97432.66;5080558;28;20206;-69
2021/04/06 10:24:42;;;;;;;3.67;3.03;;;;;;;1.65;68.97;97442.03;5080391;28;20225;-69
2021/04/06 10:27:17;;;;;;;3.77;3.47;;;;;;;1.83;69.51;97442.38;5076498;28;20224;-68
2021/04/06 10:29:46;;;;;;;4.47;3.40;;;;;;;1.56;67.73;97431.38;5072671;28;20674;-71
2021/04/06 10:32:28;;;;;;;2.93;2.80;;;;;;;1.49;68.88;97421.53;5077816;28;20202;-69
2021/04/06 10:35:01;;;;;;;6.17;3.40;;;;;;;1.33;69.10;97430.56;5078138;28;20678;-68
2021/04/06 10:37:39;;;;;;;3.33;3.10;;;;;;;1.42;68.98;97422.00;5079431;28;20331;-70
2021/04/06 10:40:21;;;;;;;3.90;3.60;;;;;;;1.66;68.39;97428.84;5079062;28;20213;-69
2021/04/06 10:42:49;;;;;;;3.37;2.97;;;;;;;1.95;66.50;97424.88;5079137;28;20210;-70
2021/04/06 10:45:19;;;;;;;3.83;3.53;;;;;;;2.35;65.21;97431.25;5080277;28;20198;-68
2021/04/06 10:47:50;;;;;;;5.00;3.07;;;;;;;2.07;65.82;97415.19;5080578;28;20208;-69
2021/04/06 10:50:17;;;;;;;3.77;3.00;;;;;;;2.47;66.26;97409.34;5080309;28;20605;-70
2021/04/06 10:52:44;;;;;;;4.87;3.07;;;;;;;2.34;64.97;97403.44;5080223;28;20225;-68
2021/04/06 10:55:12;;;;;;;3.30;3.00;;;;;;;2.50;63.80;97396.00;5079096;28;20202;-69
2021/04/06 10:57:40;;;;;;;8.00;3.33;;;;;;;2.72;63.09;97408.13;5079446;28;20206;-69
2021/04/06 11:00:23;;;;;;;3.73;3.43;;;;;;;3.53;62.90;97396.03;5079974;28;20297;-68
2021/04/06 11:03:12;;;;;;;2.90;2.60;;;;;;;3.40;58.81;97390.19;5079911;28;20597;-67
2021/04/06 11:05:39;;;;;;;4.87;3.10;;;;;;;2.79;61.34;97382.25;5077810;28;20198;-70
2021/04/06 11:08:23;;;;;;;3.63;2.83;;;;;;;2.94;62.27;97376.69;5079697;28;20198;-69
2021/04/06 11:10:52;;;;;;;7.17;3.30;;;;;;;3.06;62.32;97380.03;5077689;28;20532;-70
2021/04/06 11:13:20;;;;;;;6.70;3.70;;;;;;;3.01;60.75;97383.03;5080609;28;20244;-69
2021/04/06 11:15:48;;;;;;;3.97;2.97;;;;;;;2.93;61.49;97402.00;5079144;28;20659;-67
2021/04/06 11:18:16;;;;;;;5.43;3.57;;;;;;;2.75;61.46;97386.94;5080378;28;20217;-68
2021/04/06 11:20:43;;;;;;;4.20;3.30;;;;;;;3.07;60.49;97382.50;5074509;28;20211;-68
2021/04/06 11:23:10;;;;;;;5.93;3.23;;;;;;;3.16;59.74;97365.19;5079523;28;20544;-70
2021/04/06 11:25:37;;;;;;;2.93;2.73;;;;;;;3.00;59.61;97368.31;5077980;28;20614;-66
2021/04/06 11:28:04;;;;;;;4.77;2.87;;;;;;;2.86;59.08;97383.41;5076594;28;20230;-69
2021/04/06 11:30:32;;;;;;;6.57;3.00;;;;;;;2.83;58.64;97377.59;5072956;28;20591;-69
2021/04/06 11:33:02;;;;;;;6.27;3.17;;;;;;;3.09;57.87;97364.88;5080363;28;20593;-69
2021/04/06 11:35:29;;;;;;;4.43;3.33;;;;;;;2.87;58.63;97378.97;5075019;28;20210;-71
2021/04/06 11:37:56;;;;;;;3.10;2.90;;;;;;;2.74;57.97;97360.88;5078278;28;20221;-70
2021/04/06 11:40:24;;;;;;;3.60;3.13;;;;;;;3.00;58.64;97358.66;5079675;28;20198;-68
2021/04/06 11:42:51;;;;;;;3.10;2.67;;;;;;;3.73;57.74;97362.00;5076065;28;20685;-68
2021/04/06 11:45:21;;;;;;;6.20;2.70;;;;;;;4.35;54.41;97346.81;5080339;28;20206;-69
2021/04/06 11:47:49;;;;;;;3.83;2.80;;;;;;;3.97;54.83;97348.50;5075025;28;20218;-70